createdAt,value
2018-07-31T00:02:05.048Z,58.70
2018-07-31T00:05:10.289Z,58.78
2018-07-31T00:08:16.260Z,58.78
2018-07-31T00:11:22.882Z,58.90
2018-07-31T00:14:28.806Z,57.75
2018-07-31T00:17:36.029Z,57.30
2018-07-31T00:20:41.730Z,58.34
2018-07-31T00:23:46.830Z,58.32
2018-07-31T00:26:52.307Z,58.76
2018-07-31T00:29:59.133Z,58.51
2018-07-31T00:33:05.285Z,58.19
2018-07-31T00:36:11.116Z,57.74
2018-07-31T00:39:16.060Z,57.75
2018-07-31T00:42:22.265Z,57.69
2018-07-31T00:45:29.205Z,57.50
2018-07-31T00:48:34.757Z,58.01
2018-07-31T00:51:41.144Z,57.57
2018-07-31T00:54:47.043Z,56.79
2018-07-31T00:57:53.250Z,56.33
2018-07-31T01:00:59.501Z,57.66
2018-07-31T01:04:06.302Z,56.96
2018-07-31T01:07:12.345Z,56.85
2018-07-31T01:10:18.305Z,57.11
2018-07-31T01:13:23.657Z,56.42
2018-07-31T01:16:28.866Z,57.51
2018-07-31T01:19:34.995Z,56.75
2018-07-31T01:22:42.015Z,56.72
2018-07-31T01:25:48.559Z,56.96
2018-07-31T01:28:54.049Z,56.62
2018-07-31T01:31:59.631Z,56.98
2018-07-31T01:35:06.649Z,57.09
2018-07-31T01:38:12.455Z,56.92
2018-07-31T01:41:19.721Z,56.82
2018-07-31T01:44:25.493Z,57.38
2018-07-31T01:47:31.750Z,56.46
2018-07-31T01:50:37.628Z,55.81
2018-07-31T01:53:43.253Z,55.75
2018-07-31T01:56:49.345Z,56.57
2018-07-31T01:59:55.289Z,56.60
2018-07-31T02:03:01.454Z,55.93
2018-07-31T02:06:07.409Z,56.29
2018-07-31T02:09:14.397Z,55.69
2018-07-31T02:12:20.578Z,56.73
2018-07-31T02:15:26.247Z,55.62
2018-07-31T02:18:31.477Z,55.76
2018-07-31T02:21:36.938Z,56.60
2018-07-31T02:24:42.998Z,56.46
2018-07-31T02:27:48.626Z,55.53
2018-07-31T02:30:53.531Z,55.56
2018-07-31T02:34:00.052Z,55.80
2018-07-31T02:37:06.877Z,55.97
2018-07-31T02:40:14.458Z,55.85
2018-07-31T02:43:20.275Z,55.89
2018-07-31T02:46:26.869Z,55.72
2018-07-31T02:49:32.894Z,55.88
2018-07-31T02:52:39.099Z,55.89
2018-07-31T02:55:44.510Z,55.90
2018-07-31T02:58:50.655Z,56.65
2018-07-31T03:01:56.597Z,56.44
2018-07-31T03:05:02.538Z,56.33
2018-07-31T03:08:08.824Z,56.19
2018-07-31T03:11:16.053Z,56.50
2018-07-31T03:14:21.571Z,56.56
2018-07-31T03:17:27.302Z,55.92
2018-07-31T03:20:32.483Z,56.12
2018-07-31T03:23:38.967Z,56.64
2018-07-31T03:26:44.502Z,55.99
2018-07-31T03:29:50.899Z,56.20
2018-07-31T03:32:56.851Z,56.06
2018-07-31T03:36:03.005Z,57.21
2018-07-31T03:39:10.062Z,56.32
2018-07-31T03:42:16.153Z,56.44
2018-07-31T03:45:22.206Z,56.92
2018-07-31T03:48:28.910Z,57.21
2018-07-31T03:51:34.909Z,56.35
2018-07-31T03:54:42.353Z,56.44
2018-07-31T03:57:48.424Z,56.96
2018-07-31T04:00:55.406Z,56.82
2018-07-31T04:04:01.376Z,56.19
2018-07-31T04:07:07.480Z,57.48
2018-07-31T04:10:14.058Z,56.76
2018-07-31T04:13:20.797Z,57.11
2018-07-31T04:16:25.969Z,56.70
2018-07-31T04:19:33.023Z,57.31
2018-07-31T04:22:39.276Z,57.54
2018-07-31T04:25:45.276Z,57.33
2018-07-31T04:28:51.210Z,57.64
2018-07-31T04:31:57.190Z,57.48
2018-07-31T04:35:04.039Z,57.52
2018-07-31T04:38:11.613Z,57.56
2018-07-31T04:41:18.619Z,56.92
2018-07-31T04:44:25.411Z,56.81
2018-07-31T04:47:32.778Z,57.01
2018-07-31T04:50:39.498Z,57.67
2018-07-31T04:53:45.225Z,57.04
2018-07-31T04:56:52.173Z,57.24
2018-07-31T04:59:59.541Z,56.92
2018-07-31T05:03:05.286Z,56.94
2018-07-31T05:06:11.302Z,57.69
2018-07-31T05:09:17.185Z,57.73
2018-07-31T05:12:24.046Z,57.71
2018-07-31T05:15:30.390Z,57.67
2018-07-31T05:18:36.348Z,57.61
2018-07-31T05:21:42.314Z,56.98
2018-07-31T05:24:49.102Z,57.45
2018-07-31T05:27:55.169Z,56.82
2018-07-31T05:31:02.078Z,57.10
2018-07-31T05:34:07.815Z,56.96
2018-07-31T05:37:13.313Z,57.01
2018-07-31T05:40:19.430Z,57.43
2018-07-31T05:43:25.457Z,57.75
2018-07-31T05:46:32.757Z,57.57
2018-07-31T05:49:37.894Z,57.15
2018-07-31T05:52:43.563Z,57.98
2018-07-31T05:55:49.006Z,57.79
2018-07-31T05:58:55.151Z,58.01
2018-07-31T06:02:01.002Z,57.94
2018-07-31T06:05:06.406Z,57.66
2018-07-31T06:08:12.218Z,56.95
2018-07-31T06:11:18.334Z,56.99
2018-07-31T06:14:23.988Z,57.12
2018-07-31T06:17:29.714Z,57.96
2018-07-31T06:20:36.622Z,57.71
2018-07-31T06:23:42.582Z,58.02
2018-07-31T06:26:47.723Z,57.14
2018-07-31T06:29:53.965Z,57.79
2018-07-31T06:32:59.760Z,58.01
2018-07-31T06:36:06.307Z,57.32
2018-07-31T06:39:11.491Z,57.95
2018-07-31T06:42:16.297Z,57.73
2018-07-31T06:45:21.444Z,57.02
2018-07-31T06:48:26.691Z,58.24
2018-07-31T06:51:33.630Z,57.51
2018-07-31T06:54:39.566Z,58.08
2018-07-31T06:57:45.416Z,57.30
2018-07-31T07:00:51.277Z,57.32
2018-07-31T07:03:58.117Z,57.85
2018-07-31T07:07:04.034Z,57.70
2018-07-31T07:10:10.094Z,57.99
2018-07-31T07:13:15.931Z,58.06
2018-07-31T07:16:21.161Z,57.49
2018-07-31T07:19:27.230Z,57.95
2018-07-31T07:22:34.070Z,58.06
2018-07-31T07:25:40.520Z,57.46
2018-07-31T07:28:47.418Z,57.54
2018-07-31T07:31:54.350Z,57.92
2018-07-31T07:35:00.118Z,57.93
2018-07-31T07:38:05.267Z,57.26
2018-07-31T07:41:11.508Z,57.75
2018-07-31T07:44:17.260Z,57.15
2018-07-31T07:47:23.325Z,57.95
2018-07-31T07:50:28.401Z,57.46
2018-07-31T07:53:33.521Z,57.81
2018-07-31T07:56:38.649Z,57.20
2018-07-31T07:59:43.922Z,57.82
2018-07-31T08:02:49.959Z,57.01
2018-07-31T08:05:56.030Z,57.64
2018-07-31T08:09:02.011Z,57.10
2018-07-31T08:12:07.166Z,57.72
2018-07-31T08:15:13.109Z,56.90
2018-07-31T08:18:18.539Z,56.56
2018-07-31T08:21:24.413Z,57.66
2018-07-31T08:24:30.771Z,57.68
2018-07-31T08:27:37.578Z,57.17
2018-07-31T08:30:44.399Z,56.67
2018-07-31T08:33:51.512Z,56.56
2018-07-31T08:36:57.763Z,56.83
2018-07-31T08:40:04.750Z,57.32
2018-07-31T08:43:11.471Z,56.58
2018-07-31T08:46:17.817Z,56.55
2018-07-31T08:49:24.577Z,56.77
2018-07-31T08:52:30.604Z,56.22
2018-07-31T08:55:37.432Z,57.18
2018-07-31T08:58:43.293Z,57.25
2018-07-31T09:01:48.589Z,56.36
2018-07-31T09:04:54.997Z,56.34
2018-07-31T09:08:01.113Z,57.05
2018-07-31T09:11:07.150Z,57.12
2018-07-31T09:14:13.080Z,56.54
2018-07-31T09:17:19.754Z,56.60
2018-07-31T09:20:26.022Z,56.21
2018-07-31T09:23:32.834Z,56.90
2018-07-31T09:26:38.885Z,57.08
2018-07-31T09:29:45.566Z,56.81
2018-07-31T09:32:57.300Z,56.90
2018-07-31T09:36:03.754Z,56.65
2018-07-31T09:39:10.790Z,56.49
2018-07-31T09:42:16.531Z,56.05
2018-07-31T09:45:21.611Z,55.76
2018-07-31T09:48:26.776Z,55.54
2018-07-31T09:51:33.336Z,56.51
2018-07-31T09:54:39.330Z,56.30
2018-07-31T09:57:45.257Z,55.54
2018-07-31T10:00:56.287Z,55.32
2018-07-31T10:04:01.733Z,54.85
2018-07-31T10:07:08.777Z,56.01
2018-07-31T10:10:15.723Z,54.73
2018-07-31T10:13:21.750Z,55.57
2018-07-31T10:16:28.926Z,55.14
2018-07-31T10:19:35.757Z,54.23
2018-07-31T10:22:42.630Z,54.42
2018-07-31T10:25:49.486Z,55.32
2018-07-31T10:28:56.012Z,54.91
2018-07-31T10:32:01.143Z,54.45
2018-07-31T10:35:07.387Z,54.35
2018-07-31T10:38:13.287Z,55.04
2018-07-31T10:41:19.847Z,53.70
2018-07-31T10:44:26.918Z,53.31
2018-07-31T10:47:33.174Z,53.53
2018-07-31T10:50:39.643Z,54.14
2018-07-31T10:53:45.889Z,53.50
2018-07-31T10:56:52.271Z,53.27
2018-07-31T10:59:58.193Z,53.29
2018-07-31T11:03:04.282Z,54.32
2018-07-31T11:06:11.800Z,53.94
2018-07-31T11:09:17.542Z,52.73
2018-07-31T11:12:23.602Z,51.97
2018-07-31T11:15:30.143Z,52.78
2018-07-31T11:18:34.969Z,53.17
2018-07-31T11:21:40.891Z,52.58
2018-07-31T11:24:46.431Z,52.80
2018-07-31T11:27:52.281Z,51.25
2018-07-31T11:30:57.728Z,52.23
2018-07-31T11:34:04.232Z,51.61
2018-07-31T11:37:09.397Z,52.18
2018-07-31T11:40:14.554Z,51.34
2018-07-31T11:43:19.653Z,51.02
2018-07-31T11:46:24.773Z,50.96
2018-07-31T11:49:30.220Z,50.56
2018-07-31T11:52:35.687Z,51.33
2018-07-31T11:55:41.949Z,51.50
2018-07-31T11:58:48.727Z,50.05
2018-07-31T12:01:55.132Z,50.95
2018-07-31T12:05:00.610Z,49.29
2018-07-31T12:08:06.845Z,50.32
2018-07-31T12:11:12.570Z,48.90
2018-07-31T12:14:18.565Z,49.00
2018-07-31T12:17:25.640Z,49.69
2018-07-31T12:20:31.947Z,49.97
2018-07-31T12:23:37.651Z,50.35
2018-07-31T12:26:43.687Z,50.45
2018-07-31T12:29:49.659Z,50.43
2018-07-31T12:32:56.899Z,49.45
2018-07-31T12:36:03.203Z,49.55
2018-07-31T12:39:11.156Z,49.99
2018-07-31T12:42:18.405Z,49.62
2018-07-31T12:45:24.125Z,49.78
2018-07-31T12:48:31.156Z,49.39
2018-07-31T12:51:37.079Z,47.77
2018-07-31T12:54:43.267Z,49.84
2018-07-31T12:57:48.954Z,49.00
2018-07-31T13:00:55.158Z,50.10
2018-07-31T13:04:00.963Z,49.05
2018-07-31T13:07:06.274Z,48.82
2018-07-31T13:10:12.221Z,47.83
2018-07-31T13:13:19.435Z,48.52
2018-07-31T13:16:25.697Z,49.28
2018-07-31T13:19:31.882Z,49.45
2018-07-31T13:22:37.023Z,49.27
2018-07-31T13:25:42.471Z,49.27
2018-07-31T13:28:48.624Z,49.30
2018-07-31T13:31:55.518Z,49.82
2018-07-31T13:35:02.841Z,49.69
2018-07-31T13:38:08.589Z,48.09
2018-07-31T13:41:15.258Z,48.89
2018-07-31T13:44:22.132Z,48.97
2018-07-31T13:47:29.258Z,48.94
2018-07-31T13:50:34.985Z,49.25
2018-07-31T13:53:41.174Z,49.10
2018-07-31T13:56:47.020Z,49.64
2018-07-31T13:59:52.969Z,48.41
2018-07-31T14:02:58.096Z,48.03
2018-07-31T14:06:03.209Z,48.51
2018-07-31T14:09:10.231Z,48.57
2018-07-31T14:12:15.314Z,48.73
2018-07-31T14:15:20.829Z,48.51
2018-07-31T14:18:27.038Z,49.34
2018-07-31T14:21:32.169Z,49.24
2018-07-31T14:24:38.022Z,48.77
2018-07-31T14:27:43.151Z,47.66
2018-07-31T14:30:49.649Z,48.02
2018-07-31T14:33:55.786Z,47.23
2018-07-31T14:37:01.348Z,48.79
2018-07-31T14:40:06.483Z,48.75
2018-07-31T14:43:12.981Z,48.78
2018-07-31T14:46:18.494Z,47.81
2018-07-31T14:49:24.394Z,47.73
2018-07-31T14:52:30.363Z,47.73
2018-07-31T14:55:36.345Z,47.91
2018-07-31T14:58:42.640Z,47.78
2018-07-31T15:01:48.834Z,47.75
2018-07-31T15:04:54.386Z,48.29
2018-07-31T15:07:59.694Z,47.35
2018-07-31T15:11:05.550Z,47.42
2018-07-31T15:14:11.276Z,47.33
2018-07-31T15:17:17.534Z,47.61
2018-07-31T15:20:23.214Z,47.07
2018-07-31T15:23:28.998Z,46.58
2018-07-31T15:26:35.420Z,46.61
2018-07-31T15:29:42.484Z,46.55
2018-07-31T15:32:48.790Z,46.85
2018-07-31T15:35:55.178Z,46.64
2018-07-31T15:39:00.641Z,46.48
2018-07-31T15:42:06.360Z,45.64
2018-07-31T15:45:12.446Z,45.66
2018-07-31T15:48:18.745Z,45.79
2018-07-31T15:51:25.369Z,45.56
2018-07-31T15:54:32.404Z,46.13
2018-07-31T15:57:38.428Z,45.86
2018-07-31T16:00:44.563Z,46.37
2018-07-31T16:03:51.237Z,45.93
2018-07-31T16:06:57.478Z,46.07
2018-07-31T16:10:04.665Z,45.97
2018-07-31T16:13:10.302Z,45.65
2018-07-31T16:16:17.457Z,45.88
2018-07-31T16:19:23.415Z,46.06
2018-07-31T16:22:29.412Z,46.46
2018-07-31T16:25:35.519Z,45.57
2018-07-31T16:28:41.609Z,46.44
2018-07-31T16:31:46.765Z,45.92
2018-07-31T16:34:53.205Z,45.80
2018-07-31T16:37:59.415Z,45.50
2018-07-31T16:41:04.952Z,45.36
2018-07-31T16:44:11.651Z,45.17
2018-07-31T16:47:17.957Z,45.76
2018-07-31T16:50:23.951Z,46.03
2018-07-31T16:53:31.662Z,45.96
2018-07-31T16:56:37.905Z,46.57
2018-07-31T16:59:44.275Z,46.13
2018-07-31T17:02:49.437Z,46.06
2018-07-31T17:05:56.878Z,46.44
2018-07-31T17:09:02.830Z,46.16
2018-07-31T17:12:09.039Z,46.41
2018-07-31T17:15:14.771Z,46.29
2018-07-31T17:18:21.133Z,46.57
2018-07-31T17:21:27.162Z,46.52
2018-07-31T17:24:33.829Z,46.55
2018-07-31T17:27:39.963Z,46.72
2018-07-31T17:30:46.866Z,46.72
2018-07-31T17:33:53.674Z,47.21
2018-07-31T17:37:00.965Z,46.86
2018-07-31T17:40:07.365Z,47.08
2018-07-31T17:43:14.133Z,46.25
2018-07-31T17:46:20.281Z,46.36
2018-07-31T17:49:25.985Z,46.67
2018-07-31T17:52:32.005Z,46.23
2018-07-31T17:55:38.373Z,47.54
2018-07-31T17:58:44.466Z,46.50
2018-07-31T18:01:50.118Z,46.72
2018-07-31T18:04:55.251Z,47.25
2018-07-31T18:08:02.396Z,47.12
2018-07-31T18:11:09.391Z,47.29
2018-07-31T18:14:16.862Z,48.24
2018-07-31T18:17:22.124Z,48.06
2018-07-31T18:20:27.474Z,48.63
2018-07-31T18:23:33.401Z,49.22
2018-07-31T18:26:41.218Z,49.32
2018-07-31T18:29:46.721Z,49.30
2018-07-31T18:32:57.466Z,49.86
2018-07-31T18:36:03.555Z,49.45
2018-07-31T18:39:14.086Z,49.00
2018-07-31T18:42:19.096Z,49.91
2018-07-31T18:45:25.160Z,50.25
2018-07-31T18:48:30.934Z,49.87
2018-07-31T18:51:37.982Z,49.73
2018-07-31T18:54:43.795Z,50.83
2018-07-31T18:57:50.648Z,49.75
2018-07-31T19:00:56.601Z,50.13
2018-07-31T19:04:02.873Z,50.15
2018-07-31T19:07:09.609Z,50.11
2018-07-31T19:10:15.592Z,50.93
2018-07-31T19:13:20.778Z,50.57
2018-07-31T19:16:27.200Z,51.62
2018-07-31T19:19:32.961Z,51.91
2018-07-31T19:22:39.855Z,51.76
2018-07-31T19:25:46.042Z,51.84
2018-07-31T19:28:51.881Z,52.08
2018-07-31T19:31:59.010Z,52.17
2018-07-31T19:35:05.154Z,52.24
2018-07-31T19:38:10.654Z,51.49
2018-07-31T19:41:15.999Z,52.51
2018-07-31T19:44:22.133Z,51.54
2018-07-31T19:47:27.914Z,51.64
2018-07-31T19:50:34.725Z,52.54
2018-07-31T19:53:40.993Z,51.82
2018-07-31T19:56:48.278Z,51.76
2018-07-31T19:59:53.438Z,52.98
2018-07-31T20:02:58.864Z,52.86
2018-07-31T20:06:04.890Z,53.21
2018-07-31T20:09:15.525Z,52.98
2018-07-31T20:12:21.038Z,52.09
2018-07-31T20:15:26.876Z,52.73
2018-07-31T20:18:33.529Z,52.53
2018-07-31T20:21:39.809Z,52.39
2018-07-31T20:24:44.789Z,52.26
2018-07-31T20:27:50.223Z,52.92
2018-07-31T20:30:56.716Z,53.03
2018-07-31T20:34:25.802Z,53.49
2018-07-31T20:37:43.958Z,53.37
2018-07-31T20:40:49.444Z,52.48
2018-07-31T20:43:55.442Z,52.70
2018-07-31T20:47:01.776Z,53.29
2018-07-31T20:50:08.720Z,52.75
2018-07-31T20:53:13.996Z,53.66
2018-07-31T20:56:19.735Z,52.82
2018-07-31T20:59:25.567Z,52.70
2018-07-31T21:02:31.785Z,52.53
2018-07-31T21:05:38.302Z,52.61
2018-07-31T21:08:44.021Z,52.57
2018-07-31T21:11:51.556Z,53.42
2018-07-31T21:14:57.782Z,52.67
2018-07-31T21:18:03.469Z,52.68
2018-07-31T21:21:10.011Z,53.47
2018-07-31T21:24:16.258Z,53.38
2018-07-31T21:27:21.457Z,52.91
2018-07-31T21:30:26.658Z,53.01
2018-07-31T21:33:32.980Z,53.92
2018-07-31T21:36:38.669Z,53.82
2018-07-31T21:39:44.316Z,53.61
2018-07-31T21:42:50.017Z,53.55
2018-07-31T21:45:55.135Z,54.46
2018-07-31T21:49:00.336Z,54.51
2018-07-31T21:52:05.505Z,54.02
2018-07-31T21:55:10.958Z,54.67
2018-07-31T21:58:17.002Z,54.88
2018-07-31T22:01:23.180Z,54.65
2018-07-31T22:04:28.762Z,55.42
2018-07-31T22:07:35.832Z,54.96
2018-07-31T22:10:43.044Z,54.66
2018-07-31T22:13:49.850Z,55.90
2018-07-31T22:16:56.490Z,55.72
2018-07-31T22:20:01.692Z,55.27
2018-07-31T22:23:08.229Z,56.21
2018-07-31T22:26:14.373Z,56.07
2018-07-31T22:29:20.106Z,56.15
2018-07-31T22:32:25.942Z,55.76
2018-07-31T22:35:31.037Z,56.17
2018-07-31T22:38:36.783Z,56.33
2018-07-31T22:41:42.598Z,56.70
2018-07-31T22:44:47.706Z,56.41
2018-07-31T22:47:52.919Z,57.96
2018-07-31T22:50:58.197Z,56.99
2018-07-31T22:54:04.337Z,57.08
2018-07-31T22:57:09.489Z,57.38
2018-07-31T23:00:15.910Z,58.24
2018-07-31T23:03:21.643Z,58.01
2018-07-31T23:06:26.468Z,57.75
2018-07-31T23:09:32.929Z,57.81
2018-07-31T23:12:39.543Z,58.81
2018-07-31T23:15:44.635Z,58.95
2018-07-31T23:18:49.742Z,59.28
2018-07-31T23:21:55.871Z,59.35
2018-07-31T23:25:02.021Z,59.54
2018-07-31T23:28:07.250Z,59.18
2018-07-31T23:31:13.051Z,59.22
2018-07-31T23:34:19.089Z,59.40
2018-07-31T23:37:25.393Z,59.44
2018-07-31T23:40:30.533Z,59.82
2018-07-31T23:43:35.641Z,60.01
2018-07-31T23:46:40.770Z,60.29
2018-07-31T23:49:45.878Z,59.69
2018-07-31T23:52:51.039Z,60.54
2018-07-31T23:55:57.501Z,60.25
2018-07-31T23:59:04.238Z,60.51
